Time;durP1;ratioP1;P1;durP2;ratioP2;P2;SDS_P1;SDS_P2;PMS_P1;PMS_P2;Temp;Humidity;BMP_temperature;BMP_pressure;BME280_temperature;BME280_humidity;BME280_pressure;Samples;Min_cycle;Max_cycle;Signal;HPM_P1;HPM_P2
2022/06/17 00:00:39;;;;;;;;;;;;;;;27.49;57.91;99985.06;2033965;29;19966;-77
2022/06/17 00:01:39;;;;;;;;;;;;;;;27.49;57.96;99980.25;2033992;29;20317;-77
2022/06/17 00:02:40;;;;;;;;;;;;;;;27.49;57.93;99982.28;2023690;29;19911;-77
2022/06/17 00:03:40;;;;;;;;;;;;;;;27.47;58.04;99971.63;2024672;29;20514;-77
2022/06/17 00:04:40;;;;;;;;;;;;;;;27.47;57.97;99971.63;2023725;29;19915;-77
2022/06/17 00:05:41;;;;;;;;;;;;;;;27.48;57.99;99977.94;2024781;29;20169;-77
2022/06/17 00:06:54;;;;;;;;;;;;;;;27.47;57.98;99974.41;2026854;29;19918;-77
2022/06/17 00:07:54;;;;;;;;;;;;;;;27.47;58.04;99979.97;2026743;29;20339;-77
2022/06/17 00:08:56;;;;;;;;;;;;;;;27.46;58.04;99977.63;2030885;29;19914;-78
2022/06/17 00:09:57;;;;;;;;;;;;;;;27.46;58.01;99986.75;2027946;29;20029;-77
2022/06/17 00:10:57;;;;;;;;;;;;;;;27.45;57.97;99979.66;2026353;29;19923;-77
2022/06/17 00:11:58;;;;;;;;;;;;;;;27.46;57.91;99980.41;2038574;28;19929;-77
2022/06/17 00:12:58;;;;;;;;;;;;;;;27.46;58.09;99986.75;2033052;28;19996;-77
2022/06/17 00:13:58;;;;;;;;;;;;;;;27.45;58.01;99988.00;2027059;29;20630;-77
2022/06/17 00:15:14;;;;;;;;;;;;;;;27.44;58.06;99983.69;2019184;29;20817;-77
2022/06/17 00:16:15;;;;;;;;;;;;;;;27.45;57.87;99990.00;2032743;28;19910;-77
2022/06/17 00:17:16;;;;;;;;;;;;;;;27.44;57.84;99989.25;2037119;28;20712;-82
2022/06/17 00:18:16;;;;;;;;;;;;;;;27.43;57.96;99987.72;2032717;29;20492;-81
2022/06/17 00:19:18;;;;;;;;;;;;;;;27.44;57.83;99989.25;2032725;29;20309;-81
2022/06/17 00:20:20;;;;;;;;;;;;;;;27.44;57.98;99986.47;2033586;28;19907;-81
2022/06/17 00:21:31;;;;;;;;;;;;;;;27.43;58.06;99990.50;2033569;28;20305;-81
2022/06/17 00:22:31;;;;;;;;;;;;;;;27.43;57.94;99984.94;2029882;29;19921;-81
2022/06/17 00:23:32;;;;;;;;;;;;;;;27.43;57.82;99987.72;2023528;29;19934;-81
2022/06/17 00:24:32;;;;;;;;;;;;;;;27.43;58.07;99990.50;2036177;28;19958;-81
2022/06/17 00:25:34;;;;;;;;;;;;;;;27.43;57.94;99986.94;2033943;28;19903;-80
2022/06/17 00:26:34;;;;;;;;;;;;;;;27.42;58.29;99994.50;2031777;29;19914;-81
2022/06/17 00:27:34;;;;;;;;;;;;;;;27.42;58.12;99990.97;2024590;29;19911;-81
2022/06/17 00:28:35;;;;;;;;;;;;;;;27.41;58.27;99995.75;2024080;29;19946;-80
2022/06/17 00:29:35;;;;;;;;;;;;;;;27.41;58.34;99989.41;2036450;29;19930;-81
2022/06/17 00:30:35;;;;;;;;;;;;;;;27.41;58.19;99990.19;2034478;29;19914;-81
2022/06/17 00:31:36;;;;;;;;;;;;;;;27.41;58.21;99989.41;2031588;28;19907;-82
2022/06/17 00:32:36;;;;;;;;;;;;;;;27.41;58.22;99992.19;2035195;28;19946;-81
2022/06/17 00:33:36;;;;;;;;;;;;;;;27.40;58.21;99991.44;2033897;29;19911;-77
2022/06/17 00:34:37;;;;;;;;;;;;;;;27.39;58.00;99992.66;2034946;29;19973;-77
2022/06/17 00:35:39;;;;;;;;;;;;;;;27.39;58.10;99992.66;2028904;29;19918;-77
2022/06/17 00:36:40;;;;;;;;;;;;;;;27.39;57.86;99987.09;2030436;29;19982;-77
2022/06/17 00:37:40;;;;;;;;;;;;;;;27.39;57.80;99997.47;2033760;28;20058;-77
2022/06/17 00:38:41;;;;;;;;;;;;;;;27.39;57.76;99997.47;2030150;28;20476;-77
2022/06/17 00:39:41;;;;;;;;;;;;;;;27.38;57.72;99999.50;2030996;29;19907;-77
2022/06/17 00:40:42;;;;;;;;;;;;;;;27.38;57.85;99993.16;2023529;29;19974;-77
2022/06/17 00:41:44;;;;;;;;;;;;;;;27.38;58.06;99995.94;2015811;29;19915;-77
2022/06/17 00:42:44;;;;;;;;;;;;;;;27.38;57.97;100002.28;2028138;29;20421;-77
2022/06/17 00:43:44;;;;;;;;;;;;;;;27.38;58.07;100004.28;2033935;28;20341;-77
2022/06/17 00:44:58;;;;;;;;;;;;;;;27.37;58.14;99997.16;2031095;29;19913;-77
2022/06/17 00:46:05;;;;;;;;;;;;;;;27.36;58.30;100001.97;2030157;29;19926;-77
2022/06/17 00:47:20;;;;;;;;;;;;;;;27.36;58.23;99999.19;2030715;28;20297;-78
2022/06/17 00:48:24;;;;;;;;;;;;;;;27.36;57.92;99993.63;2016304;29;19959;-78
2022/06/17 00:49:32;;;;;;;;;;;;;;;27.36;58.02;100004.75;2023538;29;20401;-77
2022/06/17 00:50:37;;;;;;;;;;;;;;;27.36;58.12;99999.19;2029438;29;19914;-77
2022/06/17 00:51:44;;;;;;;;;;;;;;;27.34;57.82;100001.66;2030826;29;19913;-77
2022/06/17 00:52:56;;;;;;;;;;;;;;;27.34;57.91;100001.66;2022914;29;19922;-77
2022/06/17 00:53:59;;;;;;;;;;;;;;;27.35;58.00;100005.22;2024085;29;19915;-78
2022/06/17 00:55:04;;;;;;;;;;;;;;;27.34;57.90;100007.22;2030443;28;19962;-78
2022/06/17 00:56:04;;;;;;;;;;;;;;;27.34;58.10;99998.88;2030347;29;19911;-77
2022/06/17 00:57:16;;;;;;;;;;;;;;;27.34;58.06;100000.91;2029886;29;20001;-77
2022/06/17 00:58:21;;;;;;;;;;;;;;;27.34;58.11;100007.22;2024722;29;20745;-77
2022/06/17 00:59:23;;;;;;;;;;;;;;;27.34;58.27;100006.47;2022677;29;19915;-77
2022/06/17 01:00:25;;;;;;;;;;;;;;;27.34;58.31;100000.91;2033528;28;19933;-77
2022/06/17 01:01:26;;;;;;;;;;;;;;;27.34;58.28;100004.44;2030195;28;20365;-77
2022/06/17 01:02:28;;;;;;;;;;;;;;;27.33;58.18;100002.91;2031687;29;19957;-79
2022/06/17 01:03:34;;;;;;;;;;;;;;;27.34;58.39;100006.47;2031536;29;19922;-79
2022/06/17 01:04:37;;;;;;;;;;;;;;;27.32;58.26;100001.38;2030929;29;20005;-79
2022/06/17 01:05:41;;;;;;;;;;;;;;;27.31;58.40;100003.38;2033989;28;19914;-79
2022/06/17 01:06:46;;;;;;;;;;;;;;;27.32;58.25;100009.72;2034447;29;20458;-79
2022/06/17 01:07:52;;;;;;;;;;;;;;;27.30;58.29;100007.41;2032767;29;19972;-78
2022/06/17 01:10:19;;;;;;;;;;;;;;;27.30;58.45;100007.41;2028934;29;20006;-79
2022/06/17 01:11:22;;;;;;;;;;;;;;;27.30;58.53;100009.41;2036101;29;19914;-79
2022/06/17 01:12:24;;;;;;;;;;;;;;;27.30;58.36;100009.41;2033140;29;19915;-79
2022/06/17 01:13:24;;;;;;;;;;;;;;;27.30;58.58;100015.75;2032476;29;19911;-79
2022/06/17 01:14:27;;;;;;;;;;;;;;;27.30;58.22;100012.19;2035920;29;19925;-79
2022/06/17 01:15:28;;;;;;;;;;;;;;;27.30;58.30;100012.97;2030014;29;19975;-79
2022/06/17 01:16:30;;;;;;;;;;;;;;;27.29;58.43;100014.19;2029496;29;19915;-79
2022/06/17 01:17:31;;;;;;;;;;;;;;;27.29;58.51;100010.66;2032583;29;19917;-79
2022/06/17 01:18:34;;;;;;;;;;;;;;;27.29;58.62;100010.66;2033394;29;19954;-79
2022/06/17 01:19:34;;;;;;;;;;;;;;;27.27;58.61;100008.34;2034538;29;20033;-79
2022/06/17 01:20:36;;;;;;;;;;;;;;;27.26;58.44;100004.03;2033266;29;19925;-79
2022/06/17 01:21:40;;;;;;;;;;;;;;;27.26;58.33;100004.03;2026926;29;20377;-79
2022/06/17 01:22:41;;;;;;;;;;;;;;;27.26;58.48;100017.16;2032285;29;19914;-79
2022/06/17 01:23:42;;;;;;;;;;;;;;;27.26;58.30;100008.81;2035391;29;19926;-78
2022/06/17 01:24:43;;;;;;;;;;;;;;;27.25;58.48;100004.50;2040215;29;19918;-79
2022/06/17 01:25:44;;;;;;;;;;;;;;;27.25;58.57;100004.50;2034864;29;19911;-78
2022/06/17 01:26:45;;;;;;;;;;;;;;;27.25;58.61;100005.25;2034708;29;19906;-79
2022/06/17 01:27:51;;;;;;;;;;;;;;;27.26;58.75;100017.16;2033477;29;19907;-79
2022/06/17 01:28:51;;;;;;;;;;;;;;;27.26;58.83;100019.94;2037840;28;19910;-79
2022/06/17 01:29:51;;;;;;;;;;;;;;;27.25;58.79;100021.16;2025810;29;20133;-79
2022/06/17 01:30:54;;;;;;;;;;;;;;;27.25;58.71;100015.63;2029725;29;19919;-79
2022/06/17 01:31:55;;;;;;;;;;;;;;;27.25;58.79;100015.63;2037261;29;19993;-79
2022/06/17 01:33:00;;;;;;;;;;;;;;;27.25;58.48;100021.16;2034452;28;20401;-79
2022/06/17 01:34:01;;;;;;;;;;;;;;;27.24;58.59;100019.63;2031995;29;19922;-79
2022/06/17 01:35:02;;;;;;;;;;;;;;;27.24;58.60;100025.19;2031969;29;19961;-79
2022/06/17 01:36:05;;;;;;;;;;;;;;;27.22;58.59;100025.69;2026269;29;20013;-79
2022/06/17 01:37:07;;;;;;;;;;;;;;;27.24;58.72;100019.63;2028519;29;19910;-79
2022/06/17 01:38:08;;;;;;;;;;;;;;;27.23;58.79;100023.66;2032869;29;20867;-79
2022/06/17 01:39:08;;;;;;;;;;;;;;;27.22;58.62;100028.47;2032904;28;19917;-79
2022/06/17 01:40:08;;;;;;;;;;;;;;;27.22;58.97;100022.91;2036172;28;19913;-79
2022/06/17 01:41:09;;;;;;;;;;;;;;;27.22;58.87;100027.69;2033314;29;20630;-79
2022/06/17 01:42:10;;;;;;;;;;;;;;;27.21;58.83;100015.03;2034334;29;19911;-79
2022/06/17 01:43:12;;;;;;;;;;;;;;;27.21;59.05;100020.59;2029928;29;19914;-79
2022/06/17 01:44:17;;;;;;;;;;;;;;;27.21;58.57;100013.00;2024523;29;19967;-79
2022/06/17 01:45:17;;;;;;;;;;;;;;;27.21;58.90;100012.25;2027829;29;19923;-79
2022/06/17 01:46:23;;;;;;;;;;;;;;;27.20;58.79;100014.25;2028157;29;19921;-79
2022/06/17 01:47:25;;;;;;;;;;;;;;;27.20;58.84;100010.69;2032452;29;20381;-79
2022/06/17 01:48:28;;;;;;;;;;;;;;;27.19;58.84;100012.69;2031866;29;19919;-79
2022/06/17 01:49:36;;;;;;;;;;;;;;;27.20;58.93;100019.03;2027623;29;19979;-79
2022/06/17 01:50:36;;;;;;;;;;;;;;;27.20;59.03;100024.59;2026627;29;20046;-79
2022/06/17 01:51:40;;;;;;;;;;;;;;;27.19;58.96;100020.28;2033390;29;20427;-79
2022/06/17 01:52:44;;;;;;;;;;;;;;;27.18;58.97;100013.94;2033624;29;20835;-79
2022/06/17 01:53:47;;;;;;;;;;;;;;;27.19;58.78;100017.50;2034461;29;19911;-79
2022/06/17 01:54:51;;;;;;;;;;;;;;;27.18;58.99;100013.94;2033303;29;19917;-79
2022/06/17 01:55:54;;;;;;;;;;;;;;;27.18;58.87;100019.50;2034826;29;19914;-79
2022/06/17 01:56:57;;;;;;;;;;;;;;;27.18;58.84;100016.72;2038499;28;19911;-79
2022/06/17 01:58:08;;;;;;;;;;;;;;;27.19;58.93;100017.50;2034935;29;19914;-79
2022/06/17 01:59:17;;;;;;;;;;;;;;;27.17;58.99;100011.66;2034748;29;19938;-79
2022/06/17 02:00:22;;;;;;;;;;;;;;;27.17;58.82;100014.44;2034596;29;19914;-79
2022/06/17 02:01:24;;;;;;;;;;;;;;;27.16;58.72;100008.09;2034296;29;19930;-79
2022/06/17 02:02:25;;;;;;;;;;;;;;;27.16;58.61;100008.09;2034490;29;19921;-79
2022/06/17 02:03:32;;;;;;;;;;;;;;;27.15;58.64;100009.34;2032897;29;19969;-79
2022/06/17 02:04:34;;;;;;;;;;;;;;;27.15;58.87;100011.34;2032040;29;20013;-79
2022/06/17 02:05:36;;;;;;;;;;;;;;;27.15;58.89;100006.56;2031306;29;20365;-79
2022/06/17 02:06:52;;;;;;;;;;;;;;;27.15;59.00;100000.22;2034025;29;19953;-79
2022/06/17 02:07:57;;;;;;;;;;;;;;;27.14;59.12;100005.00;2027643;29;19990;-79
2022/06/17 02:08:58;;;;;;;;;;;;;;;27.13;58.97;100002.69;2027151;29;20401;-79
2022/06/17 02:09:59;;;;;;;;;;;;;;;27.13;58.92;99997.91;2035748;29;20600;-79
2022/06/17 02:11:01;;;;;;;;;;;;;;;27.12;59.03;99992.84;2028099;29;19915;-79
2022/06/17 02:12:01;;;;;;;;;;;;;;;27.12;59.25;100001.16;2030909;29;19911;-78
2022/06/17 02:13:03;;;;;;;;;;;;;;;27.11;59.26;99994.06;2033634;29;19919;-80
2022/06/17 02:14:07;;;;;;;;;;;;;;;27.11;59.12;100000.41;2033889;29;19962;-79
2022/06/17 02:15:08;;;;;;;;;;;;;;;27.11;58.99;99999.63;2024231;29;20500;-79
2022/06/17 02:16:08;;;;;;;;;;;;;;;27.09;59.02;99997.31;2028843;29;19921;-79
2022/06/17 02:17:09;;;;;;;;;;;;;;;27.10;59.02;100001.63;2031629;29;19994;-79
2022/06/17 02:18:11;;;;;;;;;;;;;;;27.11;59.16;100002.41;2035120;28;19918;-79
2022/06/17 02:19:12;;;;;;;;;;;;;;;27.09;59.28;100002.09;2024479;29;19922;-79
2022/06/17 02:20:14;;;;;;;;;;;;;;;27.10;59.24;100006.41;2023921;29;19914;-79
2022/06/17 02:21:24;;;;;;;;;;;;;;;27.09;59.14;99999.31;2032992;29;19982;-79
2022/06/17 02:22:29;;;;;;;;;;;;;;;27.08;59.23;100003.31;2032255;29;19961;-79
2022/06/17 02:23:33;;;;;;;;;;;;;;;27.07;59.21;100005.34;2024048;29;20005;-79
2022/06/17 02:24:34;;;;;;;;;;;;;;;27.06;59.12;100003.81;2022637;29;20690;-79
2022/06/17 02:25:36;;;;;;;;;;;;;;;27.07;59.17;99999.03;2025486;29;20377;-79
2022/06/17 02:26:38;;;;;;;;;;;;;;;27.07;59.05;100004.59;2028278;29;19911;-79
2022/06/17 02:27:40;;;;;;;;;;;;;;;27.06;58.98;100003.03;2039018;28;20030;-79
2022/06/17 02:28:42;;;;;;;;;;;;;;;27.06;58.96;100000.28;2034825;29;19957;-79
2022/06/17 02:29:43;;;;;;;;;;;;;;;27.06;59.07;100003.81;2034196;29;19911;-78
2022/06/17 02:30:45;;;;;;;;;;;;;;;27.05;59.08;99999.50;2039030;28;20341;-79
2022/06/17 02:31:46;;;;;;;;;;;;;;;27.06;59.28;100008.59;2032776;29;19915;-79
2022/06/17 02:32:47;;;;;;;;;;;;;;;27.05;59.29;99998.72;2026048;29;19953;-79
2022/06/17 02:33:49;;;;;;;;;;;;;;;27.06;59.25;100005.81;2032114;29;20278;-80
2022/06/17 02:34:53;;;;;;;;;;;;;;;27.06;59.17;100000.28;2030808;29;19910;-79
2022/06/17 02:35:56;;;;;;;;;;;;;;;27.04;59.33;99999.97;2038288;29;19925;-79
2022/06/17 02:37:22;;;;;;;;;;;;;;;27.03;59.29;100001.97;2029924;29;19914;-79
2022/06/17 02:38:25;;;;;;;;;;;;;;;27.03;59.23;99999.19;2030014;28;20634;-79
2022/06/17 02:39:27;;;;;;;;;;;;;;;27.03;59.11;99998.41;2036542;28;20447;-79
2022/06/17 02:40:35;;;;;;;;;;;;;;;27.03;59.29;100010.31;2032600;29;20543;-79
2022/06/17 02:41:35;;;;;;;;;;;;;;;27.03;59.07;100003.97;2034473;29;19915;-79
2022/06/17 02:42:38;;;;;;;;;;;;;;;27.03;59.03;100006.75;2038961;28;19910;-79
2022/06/17 02:43:40;;;;;;;;;;;;;;;27.02;58.80;100008.75;2031131;29;19929;-80
2022/06/17 02:44:41;;;;;;;;;;;;;;;27.02;59.11;100008.00;2023097;29;19963;-79
2022/06/17 02:45:43;;;;;;;;;;;;;;;27.01;59.10;100012.81;2034300;28;19919;-79
2022/06/17 02:46:44;;;;;;;;;;;;;;;27.01;59.03;100012.03;2032223;29;20452;-79
2022/06/17 02:47:45;;;;;;;;;;;;;;;27.01;59.36;100007.25;2038955;28;20349;-79
2022/06/17 02:48:49;;;;;;;;;;;;;;;27.00;59.42;100011.25;2038557;29;19941;-78
2022/06/17 02:49:49;;;;;;;;;;;;;;;27.00;59.99;100013.25;2041604;28;20437;-79
2022/06/17 02:50:51;;;;;;;;;;;;;;;27.00;59.72;100016.03;2033096;29;20404;-79
2022/06/17 02:51:52;;;;;;;;;;;;;;;27.00;59.69;100013.25;2037223;28;19922;-80
2022/06/17 02:52:54;;;;;;;;;;;;;;;26.99;60.10;100006.16;2030784;29;19914;-79
2022/06/17 02:53:55;;;;;;;;;;;;;;;26.99;59.86;100012.50;2030856;29;20365;-79
2022/06/17 02:54:58;;;;;;;;;;;;;;;26.98;59.93;100002.59;2036044;29;19914;-78
2022/06/17 02:56:00;;;;;;;;;;;;;;;26.98;60.19;100007.38;2033961;29;19914;-78
2022/06/17 02:57:01;;;;;;;;;;;;;;;26.98;60.19;100008.16;2037044;28;19910;-79
2022/06/17 02:58:06;;;;;;;;;;;;;;;26.98;60.51;100010.16;2031121;29;19962;-79
2022/06/17 02:59:09;;;;;;;;;;;;;;;26.97;60.40;100014.19;2037389;28;20902;-79
2022/06/17 03:00:11;;;;;;;;;;;;;;;26.97;60.36;100016.97;2035917;28;19910;-79
2022/06/17 03:01:15;;;;;;;;;;;;;;;26.97;60.51;100019.75;2031892;29;20020;-79
2022/06/17 03:02:22;;;;;;;;;;;;;;;26.96;60.66;100018.22;2031628;29;20688;-79
2022/06/17 03:03:23;;;;;;;;;;;;;;;26.96;60.44;100021.00;2035697;28;20012;-79
2022/06/17 03:04:25;;;;;;;;;;;;;;;26.94;60.35;100015.91;2039645;28;20699;-79
2022/06/17 03:05:31;;;;;;;;;;;;;;;26.95;60.13;100013.91;2035288;28;19915;-78
2022/06/17 03:06:33;;;;;;;;;;;;;;;26.95;60.21;100017.44;2034466;29;19984;-79
2022/06/17 03:07:34;;;;;;;;;;;;;;;26.94;60.07;100013.13;2039322;28;19917;-79
2022/06/17 03:08:36;;;;;;;;;;;;;;;26.94;60.78;100017.91;2034189;29;20077;-79
2022/06/17 03:09:37;;;;;;;;;;;;;;;26.93;60.56;100021.91;2035420;28;19913;-79
2022/06/17 03:10:41;;;;;;;;;;;;;;;26.93;60.87;100016.38;2035742;28;19969;-79
2022/06/17 03:11:42;;;;;;;;;;;;;;;26.94;60.48;100017.91;2038874;28;20142;-79
2022/06/17 03:12:44;;;;;;;;;;;;;;;26.91;60.33;100019.63;2028790;29;20007;-78
2022/06/17 03:13:48;;;;;;;;;;;;;;;26.92;60.15;100021.16;2026136;29;20001;-79
2022/06/17 03:15:05;;;;;;;;;;;;;;;26.92;60.33;100026.72;2030756;29;19922;-79
2022/06/17 03:16:09;;;;;;;;;;;;;;;26.92;59.87;100031.50;2028379;29;20456;-79
2022/06/17 03:17:11;;;;;;;;;;;;;;;26.91;60.25;100025.19;2033631;29;19927;-79
2022/06/17 03:18:12;;;;;;;;;;;;;;;26.91;60.42;100032.75;2038247;28;19913;-79
2022/06/17 03:19:12;;;;;;;;;;;;;;;26.90;60.42;100023.66;2033881;29;19915;-79
2022/06/17 03:20:24;;;;;;;;;;;;;;;26.91;60.45;100035.53;2036908;28;19909;-80
2022/06/17 03:21:25;;;;;;;;;;;;;;;26.89;60.86;100030.44;2031654;29;19945;-79
2022/06/17 03:22:26;;;;;;;;;;;;;;;26.89;60.87;100033.22;2032597;29;20192;-79
2022/06/17 03:23:33;;;;;;;;;;;;;;;26.88;60.93;100038.00;2032581;29;19949;-79
2022/06/17 03:24:43;;;;;;;;;;;;;;;26.88;60.98;100038.00;2031095;29;20396;-79
2022/06/17 03:25:52;;;;;;;;;;;;;;;26.87;61.33;100036.44;2025697;29;19903;-79
2022/06/17 03:26:56;;;;;;;;;;;;;;;26.87;61.45;100041.25;2032166;29;19914;-79
2022/06/17 03:27:59;;;;;;;;;;;;;;;26.86;60.90;100040.44;2031833;29;20304;-79
2022/06/17 03:29:02;;;;;;;;;;;;;;;26.87;60.88;100035.69;2030102;29;19910;-80
2022/06/17 03:30:02;;;;;;;;;;;;;;;26.85;60.30;100036.13;2037469;28;19925;-79
2022/06/17 03:31:25;;;;;;;;;;;;;;;26.85;60.14;100041.69;2033259;29;19910;-80
2022/06/17 03:32:28;;;;;;;;;;;;;;;26.85;59.67;100038.16;2033691;29;20302;-81
2022/06/17 03:33:38;;;;;;;;;;;;;;;26.84;59.75;100042.94;2033373;29;19918;-80
2022/06/17 03:34:43;;;;;;;;;;;;;;;26.85;59.65;100043.69;2030645;28;20021;-81
2022/06/17 03:35:44;;;;;;;;;;;;;;;26.83;59.73;100041.38;2031776;29;20420;-81
2022/06/17 03:36:50;;;;;;;;;;;;;;;26.84;60.01;100045.72;2031805;28;19911;-81
2022/06/17 03:38:12;;;;;;;;;;;;;;;26.83;60.25;100040.59;2023494;29;20445;-81
2022/06/17 03:39:16;;;;;;;;;;;;;;;26.82;60.40;100048.16;2024292;29;19914;-81
2022/06/17 03:40:20;;;;;;;;;;;;;;;26.81;60.46;100041.06;2032203;29;19914;-80
2022/06/17 03:41:26;;;;;;;;;;;;;;;26.80;60.71;100047.88;2033661;29;19958;-81
2022/06/17 03:42:29;;;;;;;;;;;;;;;26.78;60.29;100050.34;2033444;29;20282;-80
2022/06/17 03:43:42;;;;;;;;;;;;;;;26.79;60.12;100051.91;2032500;29;19925;-80
2022/06/17 03:44:59;;;;;;;;;;;;;;;26.78;60.08;100046.81;2032208;28;20464;-81
2022/06/17 03:46:01;;;;;;;;;;;;;;;26.76;59.98;100052.81;2033397;29;20432;-81
2022/06/17 03:47:06;;;;;;;;;;;;;;;26.77;60.01;100048.03;2033938;29;19915;-81
2022/06/17 03:48:25;;;;;;;;;;;;;;;26.77;60.03;100045.25;2031723;29;19925;-81
2022/06/17 03:49:29;;;;;;;;;;;;;;;26.76;60.00;100058.38;2027219;28;19948;-81
2022/06/17 03:50:33;;;;;;;;;;;;;;;26.76;60.15;100052.81;2031598;29;20217;-81
2022/06/17 03:51:35;;;;;;;;;;;;;;;26.76;59.99;100058.38;2032606;28;19910;-80
2022/06/17 03:52:40;;;;;;;;;;;;;;;26.75;60.38;100062.41;2029789;29;20004;-81
2022/06/17 03:53:41;;;;;;;;;;;;;;;26.75;60.51;100062.41;2031793;28;19915;-81
2022/06/17 03:54:41;;;;;;;;;;;;;;;26.76;60.73;100068.72;2028722;29;19918;-80
2022/06/17 03:55:41;;;;;;;;;;;;;;;26.76;61.27;100068.72;2028063;29;19961;-81
2022/06/17 03:56:47;;;;;;;;;;;;;;;26.75;61.40;100070.75;2026784;29;19911;-81
2022/06/17 03:57:53;;;;;;;;;;;;;;;26.75;61.67;100067.19;2025533;29;19914;-80
2022/06/17 03:58:55;;;;;;;;;;;;;;;26.75;62.07;100073.53;2024558;29;19947;-80
2022/06/17 03:59:56;;;;;;;;;;;;;;;26.74;61.79;100077.53;2024193;29;19922;-80
2022/06/17 04:01:02;;;;;;;;;;;;;;;26.73;60.58;100075.97;2030503;29;19987;-81
2022/06/17 04:02:06;;;;;;;;;;;;;;;26.73;60.04;100087.09;2032088;29;19934;-81
2022/06/17 04:03:12;;;;;;;;;;;;;;;26.73;60.31;100086.31;2032880;29;19917;-81
2022/06/17 04:04:15;;;;;;;;;;;;;;;26.72;60.73;100091.09;2033311;29;20333;-81
2022/06/17 04:05:16;;;;;;;;;;;;;;;26.73;61.28;100091.88;2032951;29;19943;-81
2022/06/17 04:06:18;;;;;;;;;;;;;;;26.71;60.43;100097.13;2031211;29;19907;-80
2022/06/17 04:07:19;;;;;;;;;;;;;;;26.71;60.38;100095.13;2030717;29;20096;-81
2022/06/17 04:08:19;;;;;;;;;;;;;;;26.70;60.70;100095.59;2024960;29;19960;-81
2022/06/17 04:09:21;;;;;;;;;;;;;;;26.71;60.68;100097.13;2021217;29;20378;-81
2022/06/17 04:10:23;;;;;;;;;;;;;;;26.71;60.73;100099.91;2023122;29;19945;-81
2022/06/17 04:11:26;;;;;;;;;;;;;;;26.70;61.16;100093.56;2028085;29;20485;-81
2022/06/17 04:12:27;;;;;;;;;;;;;;;26.70;61.39;100099.13;2030866;29;19918;-81
2022/06/17 04:13:29;;;;;;;;;;;;;;;26.70;61.22;100093.56;2030731;29;19910;-81
2022/06/17 04:14:29;;;;;;;;;;;;;;;26.69;61.02;100094.81;2031692;28;19919;-80
2022/06/17 04:15:44;;;;;;;;;;;;;;;26.69;61.13;100103.16;2031078;29;19910;-81
2022/06/17 04:16:50;;;;;;;;;;;;;;;26.69;60.99;100097.59;2031321;29;19921;-81
2022/06/17 04:17:53;;;;;;;;;;;;;;;26.66;60.50;100095.75;2033459;29;19921;-82
2022/06/17 04:19:00;;;;;;;;;;;;;;;26.66;61.04;100087.41;2031322;29;19911;-81
2022/06/17 04:20:19;;;;;;;;;;;;;;;26.67;61.34;100090.97;2030300;29;19954;-81
2022/06/17 04:21:21;;;;;;;;;;;;;;;26.64;61.53;100092.69;2031892;29;19915;-81
2022/06/17 04:22:27;;;;;;;;;;;;;;;26.64;61.05;100094.69;2033944;29;19915;-81
2022/06/17 04:23:29;;;;;;;;;;;;;;;26.62;60.75;100086.81;2031765;28;20556;-81
2022/06/17 04:24:30;;;;;;;;;;;;;;;26.63;60.57;100084.81;2031928;29;19915;-81
2022/06/17 04:25:43;;;;;;;;;;;;;;;26.63;60.63;100091.13;2032394;28;19970;-80
2022/06/17 04:26:45;;;;;;;;;;;;;;;26.62;60.43;100092.34;2031347;28;19933;-81
2022/06/17 04:27:57;;;;;;;;;;;;;;;26.62;60.53;100092.34;2031492;29;19974;-81
2022/06/17 04:29:01;;;;;;;;;;;;;;;26.63;60.89;100099.47;2034166;28;19910;-80
2022/06/17 04:30:01;;;;;;;;;;;;;;;26.64;61.46;100091.91;2032614;28;20365;-80
2022/06/17 04:31:06;;;;;;;;;;;;;;;26.63;61.11;100091.13;2026804;29;20315;-80
2022/06/17 04:32:11;;;;;;;;;;;;;;;26.63;61.29;100098.69;2022679;29;19915;-80
2022/06/17 04:33:26;;;;;;;;;;;;;;;26.62;60.87;100100.69;2023237;29;20346;-80
2022/06/17 04:34:26;;;;;;;;;;;;;;;26.62;60.66;100100.69;2018634;29;19923;-80
2022/06/17 04:35:27;;;;;;;;;;;;;;;26.62;60.58;100092.34;2023114;29;19950;-80
2022/06/17 04:36:54;;;;;;;;;;;;;;;26.62;60.81;100097.91;2031254;29;19918;-80
2022/06/17 04:37:55;;;;;;;;;;;;;;;26.61;60.30;100099.16;2026725;29;20486;-80
2022/06/17 04:38:58;;;;;;;;;;;;;;;26.62;60.75;100109.03;2032439;28;20326;-81
2022/06/17 04:39:59;;;;;;;;;;;;;;;26.62;61.38;100109.03;2030789;29;19989;-80
2022/06/17 04:41:00;;;;;;;;;;;;;;;26.61;60.60;100104.69;2036313;29;19915;-79
2022/06/17 04:42:04;;;;;;;;;;;;;;;26.61;60.20;100113.03;2035794;29;19917;-80
2022/06/17 04:43:07;;;;;;;;;;;;;;;26.63;59.83;100104.25;2035093;29;20618;-81
2022/06/17 04:44:11;;;;;;;;;;;;;;;26.61;59.93;100107.47;2034425;29;19914;-81
2022/06/17 04:45:24;;;;;;;;;;;;;;;26.62;59.84;100106.25;2035484;29;19937;-80
2022/06/17 04:46:34;;;;;;;;;;;;;;;26.62;60.10;100102.69;2036657;29;19918;-81
2022/06/17 04:47:34;;;;;;;;;;;;;;;26.61;60.00;100101.94;2030338;29;20500;-81
2022/06/17 04:48:35;;;;;;;;;;;;;;;26.61;59.81;100103.94;2033505;29;20384;-82
2022/06/17 04:49:37;;;;;;;;;;;;;;;26.61;59.94;100107.47;2033046;29;21013;-81
2022/06/17 04:50:37;;;;;;;;;;;;;;;26.61;60.09;100107.47;2036844;28;19911;-81
2022/06/17 04:51:38;;;;;;;;;;;;;;;26.60;60.02;100105.94;2032719;29;19989;-81
2022/06/17 04:52:41;;;;;;;;;;;;;;;26.60;59.98;100103.16;2034267;29;19925;-81
2022/06/17 04:53:43;;;;;;;;;;;;;;;26.59;60.27;100109.97;2033061;29;20389;-81
2022/06/17 04:54:43;;;;;;;;;;;;;;;26.59;60.52;100107.19;2023632;29;19915;-81
2022/06/17 04:55:44;;;;;;;;;;;;;;;26.58;60.58;100105.63;2034616;29;20362;-80
2022/06/17 04:56:46;;;;;;;;;;;;;;;26.59;61.24;100109.19;2039982;28;19918;-81
2022/06/17 04:57:47;;;;;;;;;;;;;;;26.58;61.19;100108.41;2043439;28;19965;-80
2022/06/17 04:58:47;;;;;;;;;;;;;;;26.58;61.12;100113.97;2026804;29;19915;-80
2022/06/17 04:59:48;;;;;;;;;;;;;;;26.58;61.21;100107.66;2019265;29;19919;-81
2022/06/17 05:00:51;;;;;;;;;;;;;;;26.57;60.66;100109.66;2017401;29;20014;-82
2022/06/17 05:01:55;;;;;;;;;;;;;;;26.57;61.08;100111.66;2023508;29;19926;-81
2022/06/17 05:02:55;;;;;;;;;;;;;;;26.55;61.17;100109.34;2034086;29;19918;-81
2022/06/17 05:03:59;;;;;;;;;;;;;;;26.55;61.12;100109.34;2033005;28;19973;-81
2022/06/17 05:05:04;;;;;;;;;;;;;;;26.55;61.29;100114.88;2033658;29;20729;-81
2022/06/17 05:06:04;;;;;;;;;;;;;;;26.55;61.35;100112.09;2032356;29;19911;-81
2022/06/17 05:07:05;;;;;;;;;;;;;;;26.54;61.82;100096.69;2035552;28;19915;-81
2022/06/17 05:08:25;;;;;;;;;;;;;;;26.54;61.81;100107.03;2037835;29;19989;-80
2022/06/17 05:09:30;;;;;;;;;;;;;;;26.54;61.74;100107.81;2033374;28;19980;-80
2022/06/17 05:10:33;;;;;;;;;;;;;;;26.54;62.11;100109.81;2034464;29;19939;-81
2022/06/17 05:11:36;;;;;;;;;;;;;;;26.53;61.81;100109.03;2037676;29;19910;-81
2022/06/17 05:12:47;;;;;;;;;;;;;;;26.54;61.81;100112.59;2037778;28;19913;-81
2022/06/17 05:13:52;;;;;;;;;;;;;;;26.52;62.00;100110.28;2036029;28;20412;-80
2022/06/17 05:14:59;;;;;;;;;;;;;;;26.51;62.21;100103.16;2038639;28;20070;-80
2022/06/17 05:16:00;;;;;;;;;;;;;;;26.52;62.07;100107.50;2035139;28;19910;-81
2022/06/17 05:17:00;;;;;;;;;;;;;;;26.51;61.26;100111.50;2033750;29;20433;-81
2022/06/17 05:18:02;;;;;;;;;;;;;;;26.51;61.56;100105.94;2033719;29;20558;-80
2022/06/17 05:19:02;;;;;;;;;;;;;;;26.51;61.75;100102.41;2035719;28;19938;-81
2022/06/17 05:20:03;;;;;;;;;;;;;;;26.51;62.34;100107.94;2035567;28;19954;-81
2022/06/17 05:21:03;;;;;;;;;;;;;;;26.50;62.30;100104.41;2035462;29;19949;-81
2022/06/17 05:22:09;;;;;;;;;;;;;;;26.50;62.63;100109.94;2035703;29;19911;-80
2022/06/17 05:23:12;;;;;;;;;;;;;;;26.50;62.45;100109.94;2037030;28;19910;-80
2022/06/17 05:24:12;;;;;;;;;;;;;;;26.49;62.07;100100.06;2036873;29;19910;-78
2022/06/17 05:25:23;;;;;;;;;;;;;;;26.50;61.87;100101.63;2036157;29;19911;-78
2022/06/17 05:26:24;;;;;;;;;;;;;;;26.49;61.83;100108.41;2038097;28;20510;-79
2022/06/17 05:27:25;;;;;;;;;;;;;;;26.50;61.98;100104.41;2037664;29;20170;-78
2022/06/17 05:28:26;;;;;;;;;;;;;;;26.49;61.84;100100.06;2035485;29;19918;-79